34VA weather

Loudoun Hospital Center Heliport
Leesburg, Virginia, United States

Public forecast

Using degrees Fahrenheit for public forecast. Weather courtesy of forecast.io.

Closest aviation weather report (METAR) to Loudoun Hospital Center Heliport

Closest report is Leesburg Executive Airport, 3.8 nm (7.0 km) W. Retrieved 2020/05/26 20:15 UTC (0 seconds ago):

KJYO 262015Z AUTO 17004KT 10SM SCT048 28/16 A3017 RMK AO2

Closest aviation forecast (TAF) to Loudoun Hospital Center Heliport

Closest forecast is Washington Dulles International Airport, 8.0 nm (14.9 km) S. Retrieved 2020/05/26 18:42 UTC (1 hour ago):

TAF KIAD 261740Z 2618/2724 12006KT P6SM SCT030 SCT250 FM270000 14004KT P6SM SCT050 BKN250 FM270400 15004KT P6SM BKN045 FM270600 15004KT P6SM BKN025 FM270700 14004KT 3SM BR OVC003 FM271400 12005KT P6SM BKN010 FM271800 14007KT P6SM BKN040